Impacts METAR Board
IDs:

KMIA - Miami Intl, FL, US

Updated at: 1300 UTC 23 Jun 2018
Potential Impact None Slight Moderate High
Time 23/01Z 23/02Z 23/03Z 23/04Z 23/05Z 23/06Z 23/07Z 23/08Z 23/09Z 23/10Z 23/11Z 23/12Z 23/13Z
Temp80 82 82 81 81 81 80 80 79 80 80 83 84
Dewpt76 74 74 76 77 77 76 76 76 78 78 78 78
Altim30.00 30.01 30.02 30.02 30.01 30.00 29.99 29.98 29.98 29.99 30.00 30.01 30.02
VIS10 10 10 10 10 10 10 10 10 10 10 10 10
CIG50 140 220 220 180 180 -- -- -- -- -- -- 250
CoverOVCOVCOVCBKNBKNBKNSCTSCTSCTSCTSCTSCTBKN
FltCatVFRVFRVFRVFRVFRVFRVFRVFRVFRVFRVFRVFRVFR
WX--------------------------
WDir24000002500002500270250
WSpd5 0 0 0 0 3 0 0 0 3 0 3 5
WGst-- -- -- -- -- -- -- -- -- -- -- -- --
Raw hourly METARs
KMIA 230053Z 24005KT 10SM SCT033 BKN050 BKN130 OVC250 27/24 A3000 RMK AO2 LTG DSNT SE-W SLP158 CB DSNT SW-W T02670244 $
KMIA 230153Z 00000KT 10SM FEW035TCU SCT050 BKN140 OVC200 28/23 A3001 RMK AO2 LTG DSNT S RAB00E11 SLP161 TCU W P0000 T02780233 $
KMIA 230253Z 00000KT 10SM FEW035 FEW048 SCT080 OVC220 28/23 A3002 RMK AO2 LTG DSNT E AND SE SLP164 CB DSNT E AND SE 60000 T02780233 51018 $
KMIA 230353Z 00000KT 10SM FEW035 FEW050 SCT100 BKN220 27/24 A3002 RMK AO2 SLP165 T02720244 $
KMIA 230453Z 00000KT 10SM FEW035 FEW060 SCT100 BKN180 27/25 A3001 RMK AO2 SLP164 T02720250 403440239 $
KMIA 230553Z 25003KT 10SM FEW035 FEW060 SCT100 BKN180 27/25 A3000 RMK AO2 SLP160 60000 T02720250 10278 20261 58004 $
KMIA 230653Z 00000KT 10SM FEW060 FEW100 SCT200 27/24 A2999 RMK AO2 SLP156 T02670244 $
KMIA 230753Z 00000KT 10SM FEW060 FEW100 SCT200 27/24 A2998 RMK AO2 SLP153 T02670244 $
KMIA 230853Z 00000KT 10SM FEW060 FEW100 SCT220 26/24 A2998 RMK AO2 SLP153 T02610244 55007 $
KMIA 230953Z 25003KT 10SM FEW025TCU FEW080 SCT220 27/26 A2999 RMK AO2 SLP156 TCU E T02670256 $
KMIA 231053Z COR 00000KT 10SM FEW025 FEW150 SCT250 27/26 A3000 RMK AO2 SLP159 T02670256 $
KMIA 231153Z 27003KT 10SM FEW030 FEW150 SCT250 28/26 A3001 RMK AO2 SLP163 70043 T02830256 10283 20261 53010 PNO $
KMIA 231253Z 25005KT 10SM FEW022 SCT150 BKN250 29/26 A3002 RMK AO2 SLP165 T02890256 $



Page loaded:  13:55 UTC  |   06:55 AM Pacific  |   07:55 AM Mountain  |   08:55 AM Central  |   09:55 AM Eastern

 

ADVISORIES

FORECASTS

FORECASTS

OBSERVATIONS

USER TOOLS

ABOUT US